sensor_id;sensor_type;location;lat;lon;timestamp;P1;durP1;ratioP1;P2;durP2;ratioP2
76701;SDS011;70097;44.536;0.146;2023-11-19T00:03:22;23.70;;;10.83;;
76701;SDS011;70097;44.536;0.146;2023-11-19T00:08:55;16.83;;;9.53;;
76701;SDS011;70097;44.536;0.146;2023-11-19T00:14:28;19.40;;;11.83;;
76701;SDS011;70097;44.536;0.146;2023-11-19T00:20:01;18.80;;;10.43;;
76701;SDS011;70097;44.536;0.146;2023-11-19T00:25:34;25.47;;;12.07;;
76701;SDS011;70097;44.536;0.146;2023-11-19T00:31:07;26.53;;;13.57;;
76701;SDS011;70097;44.536;0.146;2023-11-19T00:36:40;21.30;;;12.87;;
76701;SDS011;70097;44.536;0.146;2023-11-19T00:42:14;27.07;;;13.67;;
76701;SDS011;70097;44.536;0.146;2023-11-19T00:47:48;18.80;;;11.40;;
76701;SDS011;70097;44.536;0.146;2023-11-19T00:53:20;20.57;;;11.63;;
76701;SDS011;70097;44.536;0.146;2023-11-19T00:58:53;21.03;;;11.40;;
76701;SDS011;70097;44.536;0.146;2023-11-19T01:04:26;17.93;;;10.90;;
76701;SDS011;70097;44.536;0.146;2023-11-19T01:10:00;18.27;;;10.83;;
76701;SDS011;70097;44.536;0.146;2023-11-19T01:15:33;18.53;;;10.27;;
76701;SDS011;70097;44.536;0.146;2023-11-19T01:21:06;30.27;;;13.87;;
76701;SDS011;70097;44.536;0.146;2023-11-19T01:26:38;37.37;;;18.20;;
76701;SDS011;70097;44.536;0.146;2023-11-19T01:32:10;30.97;;;17.07;;
76701;SDS011;70097;44.536;0.146;2023-11-19T01:37:43;43.13;;;17.47;;
76701;SDS011;70097;44.536;0.146;2023-11-19T01:48:50;41.37;;;19.53;;
76701;SDS011;70097;44.536;0.146;2023-11-19T01:54:23;29.73;;;15.43;;
76701;SDS011;70097;44.536;0.146;2023-11-19T01:59:55;23.47;;;13.17;;
76701;SDS011;70097;44.536;0.146;2023-11-19T02:05:29;24.80;;;14.07;;
76701;SDS011;70097;44.536;0.146;2023-11-19T02:11:02;26.50;;;13.80;;
76701;SDS011;70097;44.536;0.146;2023-11-19T02:16:36;28.40;;;13.93;;
76701;SDS011;70097;44.536;0.146;2023-11-19T02:22:09;36.43;;;15.53;;
76701;SDS011;70097;44.536;0.146;2023-11-19T02:27:44;33.77;;;16.33;;
76701;SDS011;70097;44.536;0.146;2023-11-19T02:33:15;34.77;;;17.63;;
76701;SDS011;70097;44.536;0.146;2023-11-19T02:38:47;33.57;;;18.07;;
76701;SDS011;70097;44.536;0.146;2023-11-19T02:44:20;33.90;;;18.77;;
76701;SDS011;70097;44.536;0.146;2023-11-19T02:49:53;28.67;;;15.73;;
76701;SDS011;70097;44.536;0.146;2023-11-19T02:55:26;22.43;;;11.70;;
76701;SDS011;70097;44.536;0.146;2023-11-19T03:00:59;26.13;;;14.43;;
76701;SDS011;70097;44.536;0.146;2023-11-19T03:06:31;31.30;;;17.00;;
76701;SDS011;70097;44.536;0.146;2023-11-19T03:12:05;33.67;;;17.13;;
76701;SDS011;70097;44.536;0.146;2023-11-19T03:17:38;35.27;;;17.07;;
76701;SDS011;70097;44.536;0.146;2023-11-19T03:23:10;37.97;;;17.80;;
76701;SDS011;70097;44.536;0.146;2023-11-19T03:28:42;29.07;;;15.60;;
76701;SDS011;70097;44.536;0.146;2023-11-19T03:34:15;40.47;;;17.20;;
76701;SDS011;70097;44.536;0.146;2023-11-19T03:39:48;32.77;;;15.43;;
76701;SDS011;70097;44.536;0.146;2023-11-19T03:45:21;26.93;;;14.37;;
76701;SDS011;70097;44.536;0.146;2023-11-19T03:50:55;19.00;;;11.73;;
76701;SDS011;70097;44.536;0.146;2023-11-19T03:56:27;21.03;;;11.17;;
76701;SDS011;70097;44.536;0.146;2023-11-19T04:02:00;16.63;;;9.53;;
76701;SDS011;70097;44.536;0.146;2023-11-19T04:07:32;19.87;;;10.77;;
76701;SDS011;70097;44.536;0.146;2023-11-19T04:13:05;16.53;;;8.73;;
76701;SDS011;70097;44.536;0.146;2023-11-19T04:18:37;17.63;;;9.10;;
76701;SDS011;70097;44.536;0.146;2023-11-19T04:24:11;22.47;;;10.83;;
76701;SDS011;70097;44.536;0.146;2023-11-19T04:29:43;20.17;;;11.40;;
76701;SDS011;70097;44.536;0.146;2023-11-19T04:35:16;19.40;;;11.17;;
76701;SDS011;70097;44.536;0.146;2023-11-19T04:40:49;23.40;;;10.73;;
76701;SDS011;70097;44.536;0.146;2023-11-19T04:46:23;22.27;;;11.20;;
76701;SDS011;70097;44.536;0.146;2023-11-19T04:51:56;15.40;;;8.73;;
76701;SDS011;70097;44.536;0.146;2023-11-19T04:57:30;14.33;;;8.90;;
76701;SDS011;70097;44.536;0.146;2023-11-19T05:03:02;16.27;;;8.63;;
76701;SDS011;70097;44.536;0.146;2023-11-19T05:08:35;18.97;;;9.30;;
76701;SDS011;70097;44.536;0.146;2023-11-19T05:14:08;15.57;;;9.70;;
76701;SDS011;70097;44.536;0.146;2023-11-19T05:19:41;13.83;;;9.00;;
76701;SDS011;70097;44.536;0.146;2023-11-19T05:25:14;14.60;;;9.07;;
76701;SDS011;70097;44.536;0.146;2023-11-19T05:30:46;14.97;;;8.43;;
76701;SDS011;70097;44.536;0.146;2023-11-19T05:36:19;16.27;;;9.93;;
76701;SDS011;70097;44.536;0.146;2023-11-19T05:41:52;19.50;;;9.90;;
76701;SDS011;70097;44.536;0.146;2023-11-19T05:47:24;20.47;;;10.60;;
76701;SDS011;70097;44.536;0.146;2023-11-19T05:52:58;18.70;;;10.23;;
76701;SDS011;70097;44.536;0.146;2023-11-19T05:58:31;15.67;;;8.70;;
76701;SDS011;70097;44.536;0.146;2023-11-19T06:04:04;14.60;;;8.17;;
76701;SDS011;70097;44.536;0.146;2023-11-19T06:09:37;12.60;;;7.67;;
76701;SDS011;70097;44.536;0.146;2023-11-19T06:15:10;11.73;;;7.77;;
76701;SDS011;70097;44.536;0.146;2023-11-19T06:20:43;12.60;;;7.10;;
76701;SDS011;70097;44.536;0.146;2023-11-19T06:26:16;12.37;;;7.37;;
76701;SDS011;70097;44.536;0.146;2023-11-19T06:31:49;16.03;;;7.27;;
76701;SDS011;70097;44.536;0.146;2023-11-19T06:37:22;18.50;;;7.13;;
76701;SDS011;70097;44.536;0.146;2023-11-19T06:42:55;14.20;;;8.03;;
76701;SDS011;70097;44.536;0.146;2023-11-19T06:48:28;18.20;;;7.37;;
76701;SDS011;70097;44.536;0.146;2023-11-19T06:54:02;8.50;;;5.43;;
76701;SDS011;70097;44.536;0.146;2023-11-19T06:59:34;10.60;;;6.90;;
76701;SDS011;70097;44.536;0.146;2023-11-19T07:05:07;16.47;;;8.53;;
76701;SDS011;70097;44.536;0.146;2023-11-19T07:10:39;15.37;;;9.13;;
76701;SDS011;70097;44.536;0.146;2023-11-19T07:16:14;15.77;;;8.03;;
76701;SDS011;70097;44.536;0.146;2023-11-19T07:21:46;21.47;;;9.43;;
76701;SDS011;70097;44.536;0.146;2023-11-19T07:27:19;16.77;;;9.67;;
76701;SDS011;70097;44.536;0.146;2023-11-19T07:32:53;15.07;;;8.57;;
76701;SDS011;70097;44.536;0.146;2023-11-19T07:38:25;15.77;;;8.57;;
76701;SDS011;70097;44.536;0.146;2023-11-19T07:43:59;15.40;;;8.27;;
76701;SDS011;70097;44.536;0.146;2023-11-19T07:49:33;17.20;;;9.13;;
76701;SDS011;70097;44.536;0.146;2023-11-19T07:55:06;17.03;;;7.80;;
76701;SDS011;70097;44.536;0.146;2023-11-19T08:00:39;17.70;;;9.53;;
76701;SDS011;70097;44.536;0.146;2023-11-19T08:06:11;14.07;;;7.77;;
76701;SDS011;70097;44.536;0.146;2023-11-19T08:11:45;14.93;;;6.97;;
76701;SDS011;70097;44.536;0.146;2023-11-19T08:17:18;14.13;;;7.57;;
76701;SDS011;70097;44.536;0.146;2023-11-19T08:22:51;15.33;;;8.30;;
76701;SDS011;70097;44.536;0.146;2023-11-19T08:28:24;12.10;;;7.17;;
76701;SDS011;70097;44.536;0.146;2023-11-19T08:33:56;14.10;;;6.43;;
76701;SDS011;70097;44.536;0.146;2023-11-19T08:39:30;16.07;;;6.90;;
76701;SDS011;70097;44.536;0.146;2023-11-19T08:45:03;10.70;;;6.53;;
76701;SDS011;70097;44.536;0.146;2023-11-19T08:50:36;9.90;;;5.60;;
76701;SDS011;70097;44.536;0.146;2023-11-19T08:56:08;10.47;;;6.57;;
76701;SDS011;70097;44.536;0.146;2023-11-19T09:01:40;12.50;;;6.20;;
76701;SDS011;70097;44.536;0.146;2023-11-19T09:07:13;11.67;;;5.77;;
76701;SDS011;70097;44.536;0.146;2023-11-19T09:12:47;11.83;;;5.80;;
76701;SDS011;70097;44.536;0.146;2023-11-19T09:18:19;8.97;;;5.20;;
76701;SDS011;70097;44.536;0.146;2023-11-19T09:23:53;13.00;;;7.17;;
76701;SDS011;70097;44.536;0.146;2023-11-19T09:29:26;15.40;;;8.10;;
76701;SDS011;70097;44.536;0.146;2023-11-19T09:34:59;11.40;;;6.03;;
76701;SDS011;70097;44.536;0.146;2023-11-19T09:40:32;10.03;;;4.87;;
76701;SDS011;70097;44.536;0.146;2023-11-19T09:46:06;10.03;;;4.27;;
76701;SDS011;70097;44.536;0.146;2023-11-19T09:51:38;10.97;;;4.20;;
76701;SDS011;70097;44.536;0.146;2023-11-19T09:57:11;11.47;;;5.50;;
76701;SDS011;70097;44.536;0.146;2023-11-19T10:02:44;11.57;;;6.30;;
76701;SDS011;70097;44.536;0.146;2023-11-19T10:08:17;11.40;;;5.83;;
76701;SDS011;70097;44.536;0.146;2023-11-19T10:13:51;8.80;;;4.97;;
76701;SDS011;70097;44.536;0.146;2023-11-19T10:19:25;9.37;;;6.37;;
76701;SDS011;70097;44.536;0.146;2023-11-19T10:24:59;8.17;;;5.10;;
76701;SDS011;70097;44.536;0.146;2023-11-19T10:30:30;9.63;;;4.77;;
76701;SDS011;70097;44.536;0.146;2023-11-19T10:36:05;10.17;;;4.93;;
76701;SDS011;70097;44.536;0.146;2023-11-19T10:41:38;8.73;;;4.80;;
76701;SDS011;70097;44.536;0.146;2023-11-19T10:47:10;7.83;;;4.53;;
76701;SDS011;70097;44.536;0.146;2023-11-19T10:52:43;7.70;;;4.37;;
76701;SDS011;70097;44.536;0.146;2023-11-19T10:58:16;11.37;;;5.03;;
76701;SDS011;70097;44.536;0.146;2023-11-19T11:03:48;13.93;;;4.63;;
76701;SDS011;70097;44.536;0.146;2023-11-19T11:09:21;8.30;;;4.70;;
76701;SDS011;70097;44.536;0.146;2023-11-19T11:14:54;9.37;;;3.70;;
76701;SDS011;70097;44.536;0.146;2023-11-19T11:20:28;8.80;;;4.87;;
76701;SDS011;70097;44.536;0.146;2023-11-19T11:26:03;7.50;;;4.13;;
76701;SDS011;70097;44.536;0.146;2023-11-19T11:31:36;9.40;;;4.20;;
76701;SDS011;70097;44.536;0.146;2023-11-19T11:37:09;13.10;;;4.93;;
76701;SDS011;70097;44.536;0.146;2023-11-19T11:42:40;10.27;;;5.17;;
76701;SDS011;70097;44.536;0.146;2023-11-19T11:48:12;9.70;;;5.43;;
76701;SDS011;70097;44.536;0.146;2023-11-19T11:53:44;10.07;;;5.13;;
76701;SDS011;70097;44.536;0.146;2023-11-19T11:59:18;8.07;;;5.07;;
76701;SDS011;70097;44.536;0.146;2023-11-19T12:04:52;7.73;;;4.87;;
76701;SDS011;70097;44.536;0.146;2023-11-19T12:10:24;9.70;;;4.93;;
76701;SDS011;70097;44.536;0.146;2023-11-19T12:21:29;8.57;;;4.50;;
76701;SDS011;70097;44.536;0.146;2023-11-19T12:27:02;8.87;;;4.53;;
76701;SDS011;70097;44.536;0.146;2023-11-19T12:32:38;8.50;;;3.90;;
76701;SDS011;70097;44.536;0.146;2023-11-19T12:38:17;8.73;;;3.90;;
76701;SDS011;70097;44.536;0.146;2023-11-19T12:43:42;8.97;;;3.40;;
76701;SDS011;70097;44.536;0.146;2023-11-19T12:49:14;7.80;;;3.80;;
76701;SDS011;70097;44.536;0.146;2023-11-19T12:54:48;6.50;;;3.90;;
76701;SDS011;70097;44.536;0.146;2023-11-19T13:00:21;8.47;;;4.20;;
76701;SDS011;70097;44.536;0.146;2023-11-19T13:06:00;11.13;;;5.53;;
76701;SDS011;70097;44.536;0.146;2023-11-19T13:11:30;9.70;;;4.53;;
76701;SDS011;70097;44.536;0.146;2023-11-19T13:17:00;11.70;;;4.83;;
76701;SDS011;70097;44.536;0.146;2023-11-19T13:22:33;8.97;;;4.27;;
76701;SDS011;70097;44.536;0.146;2023-11-19T13:28:06;11.77;;;6.57;;
76701;SDS011;70097;44.536;0.146;2023-11-19T13:33:37;13.20;;;4.73;;
76701;SDS011;70097;44.536;0.146;2023-11-19T13:39:11;6.70;;;4.10;;
76701;SDS011;70097;44.536;0.146;2023-11-19T13:44:43;7.80;;;4.33;;
76701;SDS011;70097;44.536;0.146;2023-11-19T13:50:17;8.57;;;5.27;;
76701;SDS011;70097;44.536;0.146;2023-11-19T13:55:49;9.70;;;4.53;;
76701;SDS011;70097;44.536;0.146;2023-11-19T14:01:22;10.70;;;5.63;;
76701;SDS011;70097;44.536;0.146;2023-11-19T14:06:54;12.63;;;6.20;;
76701;SDS011;70097;44.536;0.146;2023-11-19T14:12:27;10.27;;;6.30;;
76701;SDS011;70097;44.536;0.146;2023-11-19T14:18:00;13.40;;;5.10;;
76701;SDS011;70097;44.536;0.146;2023-11-19T14:23:32;10.80;;;5.10;;
76701;SDS011;70097;44.536;0.146;2023-11-19T14:29:05;10.67;;;6.87;;
76701;SDS011;70097;44.536;0.146;2023-11-19T14:34:37;13.00;;;7.30;;
76701;SDS011;70097;44.536;0.146;2023-11-19T14:40:09;12.47;;;7.20;;
76701;SDS011;70097;44.536;0.146;2023-11-19T14:45:41;11.90;;;6.30;;
76701;SDS011;70097;44.536;0.146;2023-11-19T14:51:14;11.70;;;5.77;;
76701;SDS011;70097;44.536;0.146;2023-11-19T14:56:47;22.90;;;11.17;;
76701;SDS011;70097;44.536;0.146;2023-11-19T15:02:19;8.93;;;5.33;;
76701;SDS011;70097;44.536;0.146;2023-11-19T15:07:53;14.87;;;7.50;;
76701;SDS011;70097;44.536;0.146;2023-11-19T15:13:25;13.70;;;9.03;;
76701;SDS011;70097;44.536;0.146;2023-11-19T15:18:58;14.77;;;9.83;;
76701;SDS011;70097;44.536;0.146;2023-11-19T15:24:32;18.23;;;10.27;;
76701;SDS011;70097;44.536;0.146;2023-11-19T15:30:05;11.30;;;6.97;;
76701;SDS011;70097;44.536;0.146;2023-11-19T15:35:37;15.83;;;8.10;;
76701;SDS011;70097;44.536;0.146;2023-11-19T15:41:10;14.50;;;7.60;;
76701;SDS011;70097;44.536;0.146;2023-11-19T15:46:43;9.63;;;6.07;;
76701;SDS011;70097;44.536;0.146;2023-11-19T15:52:15;13.97;;;6.70;;
76701;SDS011;70097;44.536;0.146;2023-11-19T15:57:48;13.50;;;5.27;;
76701;SDS011;70097;44.536;0.146;2023-11-19T16:03:21;8.50;;;5.57;;
76701;SDS011;70097;44.536;0.146;2023-11-19T16:08:54;9.03;;;5.80;;
76701;SDS011;70097;44.536;0.146;2023-11-19T16:14:26;10.27;;;4.10;;
76701;SDS011;70097;44.536;0.146;2023-11-19T16:19:59;13.60;;;5.73;;
76701;SDS011;70097;44.536;0.146;2023-11-19T16:25:31;14.70;;;8.40;;
76701;SDS011;70097;44.536;0.146;2023-11-19T16:31:04;22.90;;;11.60;;
76701;SDS011;70097;44.536;0.146;2023-11-19T16:36:36;38.87;;;19.13;;
76701;SDS011;70097;44.536;0.146;2023-11-19T16:42:10;33.43;;;19.63;;
76701;SDS011;70097;44.536;0.146;2023-11-19T16:47:43;28.83;;;15.97;;
76701;SDS011;70097;44.536;0.146;2023-11-19T16:53:15;28.93;;;17.27;;
76701;SDS011;70097;44.536;0.146;2023-11-19T16:58:48;22.87;;;12.77;;
76701;SDS011;70097;44.536;0.146;2023-11-19T17:04:20;19.77;;;12.67;;
76701;SDS011;70097;44.536;0.146;2023-11-19T17:09:52;23.03;;;13.27;;
76701;SDS011;70097;44.536;0.146;2023-11-19T17:15:25;21.03;;;12.00;;
76701;SDS011;70097;44.536;0.146;2023-11-19T17:20:57;13.30;;;8.00;;
76701;SDS011;70097;44.536;0.146;2023-11-19T17:26:30;14.67;;;8.07;;
76701;SDS011;70097;44.536;0.146;2023-11-19T17:32:03;22.40;;;9.97;;
76701;SDS011;70097;44.536;0.146;2023-11-19T17:37:35;15.67;;;9.57;;
76701;SDS011;70097;44.536;0.146;2023-11-19T17:43:09;17.57;;;7.47;;
76701;SDS011;70097;44.536;0.146;2023-11-19T17:48:41;14.80;;;6.83;;
76701;SDS011;70097;44.536;0.146;2023-11-19T17:54:13;11.90;;;6.40;;
76701;SDS011;70097;44.536;0.146;2023-11-19T17:59:45;9.93;;;5.67;;
76701;SDS011;70097;44.536;0.146;2023-11-19T18:05:17;15.50;;;6.07;;
76701;SDS011;70097;44.536;0.146;2023-11-19T18:10:50;12.53;;;5.03;;
76701;SDS011;70097;44.536;0.146;2023-11-19T18:16:23;15.60;;;4.90;;
76701;SDS011;70097;44.536;0.146;2023-11-19T18:21:57;11.07;;;4.90;;
76701;SDS011;70097;44.536;0.146;2023-11-19T18:27:29;12.07;;;4.93;;
76701;SDS011;70097;44.536;0.146;2023-11-19T18:33:01;10.87;;;4.23;;
76701;SDS011;70097;44.536;0.146;2023-11-19T18:38:34;14.20;;;5.97;;
76701;SDS011;70097;44.536;0.146;2023-11-19T18:44:07;11.23;;;4.30;;
76701;SDS011;70097;44.536;0.146;2023-11-19T18:49:40;11.50;;;4.10;;
76701;SDS011;70097;44.536;0.146;2023-11-19T18:55:14;13.37;;;4.43;;
76701;SDS011;70097;44.536;0.146;2023-11-19T19:00:47;10.83;;;5.83;;
76701;SDS011;70097;44.536;0.146;2023-11-19T19:06:21;13.53;;;5.43;;
76701;SDS011;70097;44.536;0.146;2023-11-19T19:11:54;11.23;;;3.83;;
76701;SDS011;70097;44.536;0.146;2023-11-19T19:17:27;11.93;;;4.37;;
76701;SDS011;70097;44.536;0.146;2023-11-19T19:22:59;11.43;;;5.60;;
76701;SDS011;70097;44.536;0.146;2023-11-19T19:28:32;11.50;;;6.37;;
76701;SDS011;70097;44.536;0.146;2023-11-19T19:34:05;14.73;;;6.07;;
76701;SDS011;70097;44.536;0.146;2023-11-19T19:39:37;12.50;;;4.63;;
76701;SDS011;70097;44.536;0.146;2023-11-19T19:45:11;9.97;;;4.53;;
76701;SDS011;70097;44.536;0.146;2023-11-19T19:50:43;11.53;;;5.07;;
76701;SDS011;70097;44.536;0.146;2023-11-19T19:56:16;9.90;;;4.17;;
76701;SDS011;70097;44.536;0.146;2023-11-19T20:01:49;9.03;;;4.63;;
76701;SDS011;70097;44.536;0.146;2023-11-19T20:07:22;10.23;;;5.63;;
76701;SDS011;70097;44.536;0.146;2023-11-19T20:12:54;10.47;;;4.33;;
76701;SDS011;70097;44.536;0.146;2023-11-19T20:18:27;11.90;;;4.87;;
76701;SDS011;70097;44.536;0.146;2023-11-19T20:24:00;10.90;;;4.73;;
76701;SDS011;70097;44.536;0.146;2023-11-19T20:29:32;8.87;;;4.10;;
76701;SDS011;70097;44.536;0.146;2023-11-19T20:35:06;8.70;;;4.63;;
76701;SDS011;70097;44.536;0.146;2023-11-19T20:40:39;10.63;;;4.37;;
76701;SDS011;70097;44.536;0.146;2023-11-19T20:46:12;7.53;;;3.00;;
76701;SDS011;70097;44.536;0.146;2023-11-19T20:51:44;15.10;;;7.20;;
76701;SDS011;70097;44.536;0.146;2023-11-19T20:57:17;13.97;;;7.77;;
76701;SDS011;70097;44.536;0.146;2023-11-19T21:02:48;21.10;;;6.50;;
76701;SDS011;70097;44.536;0.146;2023-11-19T21:08:22;18.57;;;7.43;;
76701;SDS011;70097;44.536;0.146;2023-11-19T21:13:55;14.63;;;7.70;;
76701;SDS011;70097;44.536;0.146;2023-11-19T21:19:29;13.77;;;7.17;;
76701;SDS011;70097;44.536;0.146;2023-11-19T21:25:02;10.57;;;5.10;;
76701;SDS011;70097;44.536;0.146;2023-11-19T21:30:35;16.90;;;6.80;;
76701;SDS011;70097;44.536;0.146;2023-11-19T21:36:08;14.50;;;7.33;;
76701;SDS011;70097;44.536;0.146;2023-11-19T21:41:42;13.67;;;6.40;;
76701;SDS011;70097;44.536;0.146;2023-11-19T21:47:15;18.20;;;7.47;;
76701;SDS011;70097;44.536;0.146;2023-11-19T21:52:48;12.87;;;6.40;;
76701;SDS011;70097;44.536;0.146;2023-11-19T21:58:21;16.90;;;7.30;;
76701;SDS011;70097;44.536;0.146;2023-11-19T22:03:54;14.87;;;7.47;;
76701;SDS011;70097;44.536;0.146;2023-11-19T22:09:26;17.80;;;7.80;;
76701;SDS011;70097;44.536;0.146;2023-11-19T22:15:00;14.90;;;7.27;;
76701;SDS011;70097;44.536;0.146;2023-11-19T22:20:33;16.00;;;8.13;;
76701;SDS011;70097;44.536;0.146;2023-11-19T22:26:06;14.57;;;8.13;;
76701;SDS011;70097;44.536;0.146;2023-11-19T22:31:39;14.10;;;7.83;;
76701;SDS011;70097;44.536;0.146;2023-11-19T22:37:12;16.10;;;8.27;;
76701;SDS011;70097;44.536;0.146;2023-11-19T22:42:43;15.87;;;8.70;;
76701;SDS011;70097;44.536;0.146;2023-11-19T22:48:16;20.10;;;11.70;;
76701;SDS011;70097;44.536;0.146;2023-11-19T22:53:49;14.40;;;9.17;;
76701;SDS011;70097;44.536;0.146;2023-11-19T22:59:21;16.63;;;10.53;;
76701;SDS011;70097;44.536;0.146;2023-11-19T23:04:55;20.73;;;11.70;;
76701;SDS011;70097;44.536;0.146;2023-11-19T23:10:28;18.60;;;10.00;;
76701;SDS011;70097;44.536;0.146;2023-11-19T23:16:00;24.77;;;11.90;;
76701;SDS011;70097;44.536;0.146;2023-11-19T23:21:32;18.87;;;10.73;;
76701;SDS011;70097;44.536;0.146;2023-11-19T23:27:06;17.50;;;9.13;;
76701;SDS011;70097;44.536;0.146;2023-11-19T23:32:39;13.97;;;7.87;;
76701;SDS011;70097;44.536;0.146;2023-11-19T23:38:11;18.93;;;10.70;;
76701;SDS011;70097;44.536;0.146;2023-11-19T23:43:44;18.97;;;10.67;;
76701;SDS011;70097;44.536;0.146;2023-11-19T23:49:17;17.40;;;9.30;;
76701;SDS011;70097;44.536;0.146;2023-11-19T23:54:50;18.43;;;10.50;;
